createdAt,value
2019-06-04T00:03:41.749Z,20.66
2019-06-04T00:08:44.478Z,20.40
2019-06-04T00:13:47.256Z,20.37
2019-06-04T00:18:49.974Z,20.50
2019-06-04T00:23:52.717Z,20.34
2019-06-04T00:28:55.971Z,20.55
2019-06-04T00:34:02.491Z,20.57
2019-06-04T00:39:06.247Z,20.57
2019-06-04T00:44:09.355Z,20.35
2019-06-04T00:49:13.092Z,20.38
2019-06-04T00:54:15.888Z,20.55
2019-06-04T00:59:18.628Z,20.52
2019-06-04T01:04:21.350Z,20.36
2019-06-04T01:09:30.124Z,20.29
2019-06-04T01:14:32.923Z,20.16
2019-06-04T01:19:35.690Z,20.13
2019-06-04T01:24:38.451Z,20.10
2019-06-04T01:29:41.201Z,20.05
2019-06-04T01:34:43.984Z,20.16
2019-06-04T01:39:46.707Z,20.30
2019-06-04T01:44:49.457Z,20.27
2019-06-04T01:49:52.494Z,20.16
2019-06-04T01:54:55.209Z,20.16
2019-06-04T01:59:57.963Z,20.30
2019-06-04T02:05:00.907Z,20.39
2019-06-04T02:10:06.090Z,20.36
2019-06-04T02:15:11.168Z,20.41
2019-06-04T02:20:15.254Z,20.30
2019-06-04T02:25:18.869Z,20.36
2019-06-04T02:30:22.431Z,20.28
2019-06-04T02:35:25.157Z,20.10
2019-06-04T02:40:46.535Z,19.92
2019-06-04T02:45:49.842Z,19.78
2019-06-04T02:50:54.621Z,19.65
2019-06-04T02:55:57.542Z,19.75
2019-06-04T03:01:01.818Z,19.79
2019-06-04T03:06:06.929Z,19.96
2019-06-04T03:11:09.849Z,19.98
2019-06-04T03:16:13.347Z,19.92
2019-06-04T03:21:17.574Z,19.87
2019-06-04T03:26:21.853Z,19.53
2019-06-04T03:31:26.056Z,19.30
2019-06-04T03:36:29.078Z,19.38
2019-06-04T03:41:31.806Z,19.40
2019-06-04T03:46:34.536Z,19.42
2019-06-04T03:51:37.286Z,19.34
2019-06-04T03:56:40.051Z,19.41
2019-06-04T04:01:42.783Z,19.49
2019-06-04T04:06:45.560Z,19.42
2019-06-04T04:11:48.271Z,19.53
2019-06-04T04:16:51.429Z,19.50
2019-06-04T04:21:54.127Z,19.57
2019-06-04T04:26:56.845Z,19.54
2019-06-04T04:31:59.538Z,19.52
2019-06-04T04:37:02.285Z,19.37
2019-06-04T04:42:05.128Z,19.31
2019-06-04T04:47:07.860Z,19.26
2019-06-04T04:52:10.593Z,19.07
2019-06-04T04:57:13.316Z,19.06
2019-06-04T05:02:16.033Z,18.87
2019-06-04T05:07:20.403Z,18.80
2019-06-04T05:12:26.467Z,18.83
2019-06-04T05:17:31.720Z,18.84
2019-06-04T05:22:34.859Z,18.76
2019-06-04T05:27:37.571Z,18.75
2019-06-04T05:33:01.590Z,18.79
2019-06-04T05:38:04.466Z,18.99
2019-06-04T05:43:07.944Z,19.00
2019-06-04T05:48:10.645Z,19.04
2019-06-04T05:53:13.346Z,18.97
2019-06-04T05:58:16.071Z,18.93
2019-06-04T06:03:18.784Z,19.15
2019-06-04T06:08:21.493Z,19.13
2019-06-04T06:13:25.642Z,19.06
2019-06-04T06:18:28.534Z,18.85
2019-06-04T06:23:32.387Z,18.88
2019-06-04T06:28:35.224Z,19.22
2019-06-04T06:33:38.296Z,19.25
2019-06-04T06:38:53.901Z,19.34
2019-06-04T06:43:45.839Z,19.43
2019-06-04T06:48:48.589Z,19.40
2019-06-04T06:53:51.291Z,19.87
2019-06-04T06:58:54.023Z,20.03
2019-06-04T07:03:57.661Z,20.12
2019-06-04T07:09:04.404Z,21.00
2019-06-04T07:14:09.020Z,21.28
2019-06-04T07:19:11.734Z,20.88
2019-06-04T07:24:14.439Z,20.90
2019-06-04T07:29:17.143Z,21.30
2019-06-04T07:34:19.863Z,21.64
2019-06-04T07:39:22.617Z,22.06
2019-06-04T07:44:25.376Z,22.18
2019-06-04T07:49:28.075Z,22.15
2019-06-04T07:54:31.508Z,22.46
2019-06-04T07:59:34.309Z,22.86
2019-06-04T08:04:41.612Z,23.56
2019-06-04T08:09:42.413Z,23.65
2019-06-04T08:14:51.497Z,23.48
2019-06-04T08:19:50.899Z,23.79
2019-06-04T08:24:53.630Z,24.49
2019-06-04T08:29:56.333Z,24.83
2019-06-04T08:34:59.047Z,25.10
2019-06-04T08:40:01.781Z,25.12
2019-06-04T08:45:06.323Z,24.80
2019-06-04T08:50:09.896Z,24.66
2019-06-04T08:55:13.097Z,24.67
2019-06-04T09:00:17.606Z,24.68
2019-06-04T09:05:20.295Z,24.92
2019-06-04T09:10:39.096Z,25.73
2019-06-04T09:15:45.518Z,25.51
2019-06-04T09:20:48.528Z,25.49
2019-06-04T09:25:51.225Z,25.81
2019-06-04T09:31:02.342Z,26.08
2019-06-04T09:35:58.579Z,26.04
2019-06-04T09:41:01.308Z,25.98
2019-06-04T09:46:04.486Z,26.04
2019-06-04T09:51:07.352Z,26.17
2019-06-04T09:56:10.266Z,26.32
2019-06-04T10:01:13.020Z,26.72
2019-06-04T10:06:15.747Z,27.30
2019-06-04T10:11:18.517Z,27.57
2019-06-04T10:16:21.213Z,26.89
2019-06-04T10:21:23.920Z,26.69
2019-06-04T10:26:26.629Z,26.85
2019-06-04T10:31:29.336Z,26.68
2019-06-04T10:36:32.161Z,26.67
2019-06-04T10:41:34.946Z,27.00
2019-06-04T10:46:37.643Z,26.76
2019-06-04T10:51:40.406Z,27.19
2019-06-04T10:56:43.103Z,27.26
2019-06-04T11:01:45.802Z,27.83
2019-06-04T11:06:48.514Z,28.23
2019-06-04T11:11:52.702Z,28.62
2019-06-04T11:16:56.649Z,28.77
2019-06-04T11:21:59.494Z,28.74
2019-06-04T11:27:02.196Z,28.80
2019-06-04T11:32:04.901Z,28.71
2019-06-04T11:37:07.610Z,27.89
2019-06-04T11:42:10.306Z,27.81
2019-06-04T11:47:13.301Z,27.57
2019-06-04T11:52:16.019Z,28.01
2019-06-04T11:57:19.507Z,27.64
2019-06-04T12:02:22.212Z,27.53
2019-06-04T12:07:24.907Z,27.42
2019-06-04T12:12:43.551Z,28.44
2019-06-04T12:17:32.249Z,29.24
2019-06-04T12:23:23.330Z,29.23
2019-06-04T12:27:39.615Z,28.01
2019-06-04T12:32:42.431Z,28.34
2019-06-04T12:37:45.109Z,29.00
2019-06-04T12:42:47.810Z,29.00
2019-06-04T12:47:50.525Z,29.64
2019-06-04T12:52:53.445Z,29.83
2019-06-04T12:57:57.553Z,29.71
2019-06-04T13:03:01.395Z,29.27
2019-06-04T13:08:23.060Z,29.15
2019-06-04T13:13:12.896Z,28.60
2019-06-04T13:18:22.541Z,27.88
2019-06-04T13:23:21.107Z,27.49
2019-06-04T13:28:24.022Z,27.20
2019-06-04T13:33:26.721Z,27.34
2019-06-04T13:38:29.448Z,27.29
2019-06-04T13:43:32.243Z,27.36
2019-06-04T13:48:34.938Z,27.62
2019-06-04T13:53:37.748Z,28.02
2019-06-04T13:58:40.453Z,28.06
2019-06-04T14:03:43.156Z,28.11
2019-06-04T14:08:45.930Z,28.39
2019-06-04T14:13:48.787Z,28.65
2019-06-04T14:18:51.605Z,28.34
2019-06-04T14:23:54.356Z,28.31
2019-06-04T14:28:57.233Z,28.70
2019-06-04T14:33:59.953Z,28.68
2019-06-04T14:39:06.043Z,29.23
2019-06-04T14:44:09.423Z,29.34
2019-06-04T14:49:12.358Z,29.58
2019-06-04T14:54:16.312Z,28.99
2019-06-04T14:59:30.905Z,28.56
2019-06-04T15:04:23.793Z,28.53
2019-06-04T15:09:26.513Z,28.66
2019-06-04T15:14:29.205Z,29.24
2019-06-04T15:19:31.929Z,29.42
2019-06-04T15:24:34.625Z,29.69
2019-06-04T15:29:37.420Z,29.86
2019-06-04T15:34:40.675Z,29.93
2019-06-04T15:39:43.591Z,29.81
2019-06-04T15:44:46.443Z,29.58
2019-06-04T15:49:49.239Z,29.48
2019-06-04T15:54:52.013Z,29.84
2019-06-04T15:59:54.713Z,29.77
2019-06-04T16:04:57.410Z,30.07
2019-06-04T16:10:00.123Z,29.54
2019-06-04T16:15:05.447Z,29.69
2019-06-04T16:20:09.125Z,29.94
2019-06-04T16:25:11.936Z,29.42
2019-06-04T16:30:27.040Z,29.20
2019-06-04T16:35:33.803Z,29.62
2019-06-04T16:40:34.735Z,29.40
2019-06-04T16:45:38.576Z,29.34
2019-06-04T16:50:41.354Z,29.60
2019-06-04T16:55:44.093Z,29.47
2019-06-04T17:00:46.850Z,29.82
2019-06-04T17:05:49.595Z,29.71
2019-06-04T17:10:52.301Z,29.65
2019-06-04T17:15:55.352Z,29.48
2019-06-04T17:20:58.089Z,29.31
2019-06-04T17:26:01.015Z,29.25
2019-06-04T17:31:03.889Z,29.15
2019-06-04T17:36:06.620Z,28.77
2019-06-04T17:41:09.353Z,28.71
2019-06-04T17:46:12.132Z,28.52
2019-06-04T17:51:14.957Z,28.63
2019-06-04T17:56:17.673Z,28.34
2019-06-04T18:01:20.386Z,28.11
2019-06-04T18:06:23.094Z,28.06
2019-06-04T18:11:26.919Z,27.90
2019-06-04T18:16:29.835Z,27.71
2019-06-04T18:21:33.826Z,27.51
2019-06-04T18:26:36.684Z,27.58
2019-06-04T18:31:40.303Z,27.41
2019-06-04T18:36:43.173Z,27.42
2019-06-04T18:41:45.924Z,27.26
2019-06-04T18:46:50.000Z,27.20
2019-06-04T18:51:52.889Z,27.22
2019-06-04T18:56:56.762Z,27.00
2019-06-04T19:01:59.500Z,26.87
2019-06-04T19:07:02.245Z,26.85
2019-06-04T19:12:05.058Z,26.79
2019-06-04T19:17:07.787Z,26.77
2019-06-04T19:22:10.621Z,26.69
2019-06-04T19:27:14.554Z,26.69
2019-06-04T19:32:17.338Z,26.60
2019-06-04T19:37:20.068Z,26.67
2019-06-04T19:42:22.817Z,26.67
2019-06-04T19:47:25.661Z,26.64
2019-06-04T19:52:28.474Z,26.64
2019-06-04T19:57:31.263Z,26.58
2019-06-04T20:02:35.472Z,26.60
2019-06-04T20:07:38.606Z,26.61
2019-06-04T20:12:42.681Z,26.49
2019-06-04T20:17:46.955Z,26.37
2019-06-04T20:22:50.393Z,26.42
2019-06-04T20:27:53.118Z,26.25
2019-06-04T20:32:57.231Z,26.23
2019-06-04T20:38:03.275Z,26.06
2019-06-04T20:43:05.325Z,26.02
2019-06-04T20:48:08.097Z,25.88
2019-06-04T20:53:10.821Z,25.93
2019-06-04T20:58:13.574Z,25.72
2019-06-04T21:03:16.347Z,25.65
2019-06-04T21:08:19.066Z,25.64
2019-06-04T21:13:21.847Z,25.59
2019-06-04T21:18:24.770Z,25.49
2019-06-04T21:23:27.464Z,25.53
2019-06-04T21:28:30.498Z,25.57
2019-06-04T21:33:33.273Z,25.64
2019-06-04T21:38:36.015Z,25.77
2019-06-04T21:43:38.735Z,25.91
2019-06-04T21:48:41.572Z,26.00
2019-06-04T21:53:45.815Z,26.02
2019-06-04T21:58:48.739Z,26.01
2019-06-04T22:03:51.916Z,26.11
2019-06-04T22:08:56.266Z,26.10
2019-06-04T22:14:00.450Z,26.02
2019-06-04T22:19:03.303Z,26.09
2019-06-04T22:24:06.026Z,26.05
2019-06-04T22:29:08.765Z,26.00
2019-06-04T22:34:11.489Z,25.95
2019-06-04T22:39:14.197Z,25.89
2019-06-04T22:44:16.915Z,25.79
2019-06-04T22:49:19.653Z,25.74
2019-06-04T22:54:22.400Z,25.71
2019-06-04T22:59:25.171Z,25.71
2019-06-04T23:04:27.910Z,25.73
2019-06-04T23:09:30.633Z,25.81
2019-06-04T23:14:33.427Z,25.85
2019-06-04T23:19:36.152Z,25.81
2019-06-04T23:24:38.890Z,25.83
2019-06-04T23:29:41.652Z,25.73
2019-06-04T23:34:44.402Z,25.92
2019-06-04T23:39:47.114Z,25.99
2019-06-04T23:44:50.546Z,26.05
2019-06-04T23:49:53.394Z,26.03
2019-06-04T23:54:56.107Z,25.92
2019-06-04T23:59:59.885Z,25.77
